Weather at Palo Alto Airport of Santa Clara County

Public forecast

Using degrees Fahrenheit for public forecast. Weather courtesy of forecast.io.

Current aviation weather report (METAR) for Palo Alto Airport of Santa Clara County

Retrieved 2021/09/18 14:47 UTC (57 minutes ago):

KPAO 181447Z 14007KT 10SM BKN 14/10 A3007

Closest aviation forecast (TAF) to Palo Alto Airport of Santa Clara County

Closest forecast is Norman Y. Mineta San Jose International Airport, 10.7 nm (19.7 km) ESE. Retrieved 2021/09/18 12:45 UTC (3 hours ago):

TAF KSJC 181143Z 1812/1912 15006KT P6SM SCT015 TEMPO 1812/1815 BKN015 FM182000 30010KT P6SM BKN035 FM190500 31007KT P6SM BKN050 FM190900 30005KT P6SM BKN025 TEMPO 1910/1912 6SM -RA BR OVC020